createdAt,value
2023-01-19T02:21:13.567Z,32.96
2023-01-19T02:22:13.533Z,32.95
2023-01-19T02:23:13.517Z,32.95
2023-01-19T02:24:13.491Z,32.96
2023-01-19T02:25:13.458Z,32.95
2023-01-19T02:26:13.449Z,32.96
2023-01-19T02:27:13.409Z,32.96
2023-01-19T02:28:13.404Z,32.97
2023-01-19T02:29:13.366Z,32.95
2023-01-19T02:30:13.328Z,32.97
2023-01-19T02:31:13.315Z,32.95
2023-01-19T02:32:13.304Z,32.97
2023-01-19T02:33:13.270Z,32.96
2023-01-19T02:34:13.231Z,32.96
2023-01-19T02:35:13.235Z,32.96
2023-01-19T02:36:13.185Z,32.98
2023-01-19T02:37:13.167Z,32.98
2023-01-19T02:38:13.158Z,32.97
2023-01-19T02:39:13.126Z,32.99
2023-01-19T02:40:13.097Z,32.96
2023-01-19T02:41:13.071Z,32.98
2023-01-19T02:42:13.043Z,33.01
2023-01-19T02:43:13.037Z,32.99
2023-01-19T02:44:13.000Z,32.99
2023-01-19T02:45:12.984Z,33.02
2023-01-19T02:46:12.974Z,32.99
2023-01-19T02:47:12.912Z,33.00
2023-01-19T02:48:12.916Z,33.00
2023-01-19T02:49:12.918Z,32.99
2023-01-19T02:50:12.871Z,33.01
2023-01-19T02:51:12.835Z,33.01
2023-01-19T02:52:12.810Z,33.01
2023-01-19T02:53:12.795Z,33.03
2023-01-19T02:54:12.818Z,33.02
2023-01-19T02:55:12.793Z,33.00
2023-01-19T02:56:12.758Z,33.01
2023-01-19T02:57:12.726Z,33.03
2023-01-19T02:58:12.685Z,33.03
2023-01-19T02:59:12.705Z,33.03
2023-01-19T03:00:12.662Z,33.03
2023-01-19T03:01:12.921Z,33.01
2023-01-19T03:02:12.718Z,33.03
2023-01-19T03:03:12.608Z,33.04
2023-01-19T03:04:12.607Z,33.03
2023-01-19T03:05:12.586Z,33.06
2023-01-19T03:06:12.566Z,33.06
2023-01-19T03:07:12.584Z,33.04
2023-01-19T03:08:12.539Z,33.04
2023-01-19T03:09:12.537Z,33.04
2023-01-19T03:10:12.523Z,33.04
2023-01-19T03:11:12.467Z,33.06
2023-01-19T03:12:12.443Z,33.06
2023-01-19T03:13:12.403Z,33.08
2023-01-19T03:14:12.402Z,33.07
2023-01-19T03:15:12.372Z,33.08
2023-01-19T03:16:12.452Z,33.07
2023-01-19T03:17:12.324Z,33.06
2023-01-19T03:18:12.332Z,33.07
2023-01-19T03:19:12.302Z,33.08
2023-01-19T03:20:12.247Z,33.09
2023-01-19T03:21:12.217Z,33.07
2023-01-19T03:22:12.183Z,33.07
2023-01-19T03:23:12.189Z,33.09
2023-01-19T03:24:12.175Z,33.07
2023-01-19T03:25:12.145Z,33.07
2023-01-19T03:26:12.155Z,33.08
2023-01-19T03:27:12.156Z,33.09
2023-01-19T03:28:12.094Z,33.10
2023-01-19T03:29:12.118Z,33.09
2023-01-19T03:30:12.078Z,33.11
2023-01-19T03:31:12.109Z,33.11
2023-01-19T03:32:12.078Z,33.12
2023-01-19T03:33:12.034Z,33.09
2023-01-19T03:34:12.013Z,33.09
2023-01-19T03:35:11.978Z,33.11
2023-01-19T03:36:11.947Z,33.10
2023-01-19T03:37:11.927Z,33.11
2023-01-19T03:38:11.919Z,33.13
2023-01-19T03:39:11.952Z,33.12
2023-01-19T03:40:11.866Z,33.12
2023-01-19T03:41:11.850Z,33.11
2023-01-19T03:42:11.828Z,33.11
2023-01-19T03:43:11.805Z,33.11
2023-01-19T03:44:11.820Z,33.11
2023-01-19T03:45:11.783Z,33.14
2023-01-19T03:46:11.776Z,33.15
2023-01-19T03:47:11.751Z,33.15
2023-01-19T03:48:11.715Z,33.12
2023-01-19T03:49:11.708Z,33.14
2023-01-19T03:50:11.706Z,33.10
2023-01-19T03:51:11.659Z,33.13
2023-01-19T03:52:11.645Z,33.13
2023-01-19T03:53:11.642Z,33.13
2023-01-19T03:54:11.607Z,33.14
2023-01-19T03:55:11.630Z,33.14
2023-01-19T03:56:11.581Z,33.12
2023-01-19T03:57:11.554Z,33.13
2023-01-19T03:58:11.521Z,33.13
2023-01-19T03:59:11.505Z,33.13
2023-01-19T04:00:11.498Z,33.13
2023-01-19T04:01:11.639Z,33.15
2023-01-19T04:02:11.456Z,33.16
2023-01-19T04:03:11.485Z,33.18
2023-01-19T04:04:11.390Z,33.16
2023-01-19T04:05:11.414Z,33.18
2023-01-19T04:06:11.344Z,33.17
2023-01-19T04:07:11.343Z,33.17
2023-01-19T04:08:11.304Z,33.17
2023-01-19T04:09:11.305Z,33.15
2023-01-19T04:10:11.285Z,33.18
2023-01-19T04:11:11.229Z,33.18
2023-01-19T04:12:11.212Z,33.20
2023-01-19T04:13:11.199Z,33.18
2023-01-19T04:14:11.164Z,33.18
2023-01-19T04:15:11.160Z,33.19
2023-01-19T04:16:11.143Z,33.19
2023-01-19T04:17:11.105Z,33.18
2023-01-19T04:18:11.069Z,33.16
2023-01-19T04:19:11.039Z,33.18
2023-01-19T04:20:11.022Z,33.19
2023-01-19T04:21:11.010Z,33.19
2023-01-19T04:22:10.972Z,33.19
2023-01-19T04:23:10.956Z,33.21
2023-01-19T04:24:10.923Z,33.20
2023-01-19T04:25:10.909Z,33.19
2023-01-19T04:26:10.900Z,33.18
2023-01-19T04:27:10.868Z,33.19
2023-01-19T04:28:10.855Z,33.22
2023-01-19T04:29:10.837Z,33.22
2023-01-19T04:30:10.800Z,33.23
2023-01-19T04:31:10.847Z,33.22
2023-01-19T04:32:10.763Z,33.20
2023-01-19T04:33:10.755Z,33.21
2023-01-19T04:34:10.732Z,33.23
2023-01-19T04:35:10.732Z,33.21
2023-01-19T04:36:10.696Z,33.23
2023-01-19T04:37:10.652Z,33.23
2023-01-19T04:38:10.644Z,33.21
2023-01-19T04:39:10.628Z,33.22
2023-01-19T04:40:10.596Z,33.21
2023-01-19T04:41:10.603Z,33.22
2023-01-19T04:42:10.577Z,33.24
2023-01-19T04:43:10.542Z,33.27
2023-01-19T04:44:10.538Z,33.23
2023-01-19T04:45:10.532Z,33.24
2023-01-19T04:46:10.524Z,33.25
2023-01-19T04:47:10.480Z,33.24
2023-01-19T04:48:10.443Z,33.25
2023-01-19T04:49:10.443Z,33.26
2023-01-19T04:50:10.397Z,33.25
2023-01-19T04:51:10.418Z,33.25
2023-01-19T04:52:10.362Z,33.26
2023-01-19T04:53:10.369Z,33.24
2023-01-19T04:54:10.354Z,33.27
2023-01-19T04:55:10.309Z,33.27
2023-01-19T04:56:10.319Z,33.28
2023-01-19T04:57:10.275Z,33.27
2023-01-19T04:58:10.261Z,33.27
2023-01-19T04:59:10.239Z,33.28
2023-01-19T05:00:10.215Z,33.26
2023-01-19T05:01:10.278Z,33.29
2023-01-19T05:02:10.254Z,33.27
2023-01-19T05:03:10.193Z,33.28
2023-01-19T05:04:10.116Z,33.29
2023-01-19T05:05:10.145Z,33.30
2023-01-19T05:06:10.071Z,33.29
2023-01-19T05:07:10.119Z,33.28
2023-01-19T05:08:10.054Z,33.28
2023-01-19T05:09:10.056Z,33.30
2023-01-19T05:10:10.151Z,33.28
2023-01-19T05:11:10.008Z,33.30
2023-01-19T05:12:09.946Z,33.29
2023-01-19T05:13:09.899Z,33.27
2023-01-19T05:14:09.866Z,33.31
2023-01-19T05:15:09.870Z,33.30
2023-01-19T05:16:09.860Z,33.31
2023-01-19T05:17:09.815Z,33.28
2023-01-19T05:18:09.795Z,33.30
2023-01-19T05:19:09.747Z,33.31
2023-01-19T05:20:09.770Z,33.31
2023-01-19T05:21:09.724Z,33.33
2023-01-19T05:22:09.689Z,33.28
2023-01-19T05:23:09.666Z,33.31
2023-01-19T05:24:09.639Z,33.34
2023-01-19T05:25:09.621Z,33.32
2023-01-19T05:26:10.419Z,33.33
2023-01-19T05:27:09.556Z,33.31
2023-01-19T05:28:09.513Z,33.33
2023-01-19T05:29:09.509Z,33.32
2023-01-19T05:30:09.482Z,33.33
2023-01-19T05:31:09.537Z,33.33
2023-01-19T05:32:09.424Z,33.34
2023-01-19T05:33:09.423Z,33.34
2023-01-19T05:34:09.397Z,33.33
2023-01-19T05:35:09.379Z,33.34
2023-01-19T05:36:09.347Z,33.33
2023-01-19T05:37:09.341Z,33.32
2023-01-19T05:38:09.309Z,33.36
2023-01-19T05:39:09.303Z,33.32
2023-01-19T05:40:09.260Z,33.34
2023-01-19T05:41:09.254Z,33.33
2023-01-19T05:42:09.203Z,33.34
2023-01-19T05:43:09.187Z,33.37
2023-01-19T05:44:09.152Z,33.33
2023-01-19T05:45:09.148Z,33.34
2023-01-19T05:46:09.133Z,33.34
2023-01-19T05:47:09.083Z,33.36
2023-01-19T05:48:10.170Z,33.35
2023-01-19T05:49:09.036Z,33.35
2023-01-19T05:50:09.032Z,33.37
2023-01-19T05:51:09.006Z,33.36
2023-01-19T05:52:08.946Z,33.36
2023-01-19T05:53:08.923Z,33.38
2023-01-19T05:54:08.913Z,33.35
2023-01-19T06:29:08.082Z,33.42
2023-01-19T06:30:08.074Z,33.41
2023-01-19T06:31:08.093Z,33.42
2023-01-19T06:32:08.044Z,33.42
2023-01-19T06:33:08.001Z,33.43
2023-01-19T06:34:07.963Z,33.42
2023-01-19T06:35:07.951Z,30.78
2023-01-19T06:36:07.921Z,25.64
2023-01-19T06:37:07.919Z,25.44
2023-01-19T06:38:07.972Z,25.69
2023-01-19T06:39:07.868Z,26.10
2023-01-19T06:40:07.869Z,25.28
2023-01-19T06:41:07.884Z,24.14
2023-01-19T06:42:07.844Z,23.69
2023-01-19T06:43:07.843Z,23.55
2023-01-19T06:44:07.818Z,23.38
2023-01-19T06:45:07.785Z,23.16
2023-01-19T06:46:07.843Z,23.32
2023-01-19T06:47:15.276Z,24.96
2023-01-19T06:48:08.820Z,24.78
2023-01-19T06:49:07.804Z,26.21
2023-01-19T06:50:07.777Z,26.13
2023-01-19T06:51:07.738Z,26.27
2023-01-19T06:52:07.746Z,26.28
2023-01-19T06:53:07.760Z,26.31
2023-01-19T06:54:07.762Z,26.85
2023-01-19T06:55:07.738Z,27.03
2023-01-19T06:56:07.752Z,27.59
2023-01-19T06:57:07.746Z,27.79
2023-01-19T06:58:07.698Z,27.89
2023-01-19T06:59:07.695Z,27.97
2023-01-19T07:00:07.666Z,28.29
2023-01-19T07:01:07.806Z,28.44
2023-01-19T07:02:27.729Z,28.69
2023-01-19T07:03:11.659Z,28.71
2023-01-19T07:04:10.937Z,28.83
2023-01-19T07:05:11.420Z,29.14
2023-01-19T07:06:10.426Z,29.39
2023-01-19T07:07:12.583Z,29.64
2023-01-19T07:08:11.913Z,29.59
2023-01-19T07:09:10.693Z,29.90
2023-01-19T07:10:15.848Z,29.86
2023-01-19T07:11:24.592Z,30.31
2023-01-19T07:12:13.910Z,30.54
2023-01-19T07:13:11.452Z,30.49
2023-01-19T07:14:09.131Z,30.65
2023-01-19T07:15:16.608Z,30.57
2023-01-19T07:16:27.362Z,30.86
2023-01-19T07:17:24.694Z,30.96
2023-01-19T07:18:24.135Z,31.03
2023-01-19T07:19:21.647Z,30.92
2023-01-19T07:20:12.847Z,30.93
2023-01-19T07:21:12.185Z,30.92
2023-01-19T07:22:10.953Z,30.94
2023-01-19T07:23:09.124Z,31.35
2023-01-19T07:24:10.642Z,31.53
2023-01-19T07:25:11.473Z,31.69
2023-01-19T07:26:09.995Z,31.72
2023-01-19T07:27:15.854Z,31.65
2023-01-19T07:28:13.204Z,31.78
2023-01-19T07:29:13.433Z,31.95
2023-01-19T07:30:09.109Z,32.06
2023-01-19T07:31:10.472Z,32.05
2023-01-19T07:32:10.322Z,32.13
2023-01-19T07:33:12.278Z,32.21
2023-01-19T07:34:12.343Z,32.29
2023-01-19T07:35:08.794Z,32.28
2023-01-19T07:36:10.586Z,32.27
2023-01-19T07:37:08.318Z,32.31
2023-01-19T07:38:08.793Z,32.43
2023-01-19T07:39:08.517Z,32.41
2023-01-19T07:40:11.240Z,32.48
2023-01-19T07:41:09.022Z,32.65
2023-01-19T07:42:07.958Z,31.26
2023-01-19T07:43:07.887Z,28.99
2023-01-19T07:44:08.019Z,28.09
2023-01-19T07:45:07.772Z,28.88
2023-01-19T07:46:08.039Z,29.26
2023-01-19T07:47:07.654Z,29.09
2023-01-19T07:48:07.655Z,29.61
2023-01-19T07:49:07.570Z,29.43
2023-01-19T07:50:07.612Z,29.05
2023-01-19T07:51:07.557Z,28.21
2023-01-19T07:52:07.654Z,28.44
2023-01-19T07:53:07.677Z,28.35
2023-01-19T07:54:07.802Z,28.28
2023-01-19T07:55:07.062Z,28.19
2023-01-19T07:56:07.381Z,28.53
2023-01-19T07:57:07.664Z,28.66
2023-01-19T07:58:07.154Z,28.30
2023-01-19T07:59:07.394Z,28.21
2023-01-19T08:00:08.662Z,27.83
2023-01-19T08:01:08.300Z,27.92
2023-01-19T08:02:07.012Z,27.83
2023-01-19T08:03:16.807Z,27.65
2023-01-19T08:04:11.746Z,27.60
2023-01-19T08:05:09.181Z,28.07
2023-01-19T08:06:07.782Z,27.88
2023-01-19T08:07:17.437Z,27.90
2023-01-19T08:08:09.278Z,28.19
2023-01-19T08:09:09.435Z,27.92
2023-01-19T08:10:14.075Z,27.98
2023-01-19T08:11:10.790Z,27.68
2023-01-19T08:12:14.622Z,27.55
2023-01-19T08:13:08.996Z,27.81
2023-01-19T08:14:10.350Z,28.15
2023-01-19T08:15:10.126Z,28.04
2023-01-19T08:16:07.653Z,27.86
2023-01-19T08:17:06.677Z,27.68
2023-01-19T08:18:09.158Z,27.39
2023-01-19T08:19:07.030Z,27.22
2023-01-19T08:20:07.263Z,27.38
2023-01-19T08:21:06.967Z,27.23
2023-01-19T08:22:07.151Z,27.00
2023-01-19T08:23:10.315Z,27.09
2023-01-19T08:24:07.519Z,26.93
2023-01-19T08:25:06.754Z,26.75
2023-01-19T08:26:11.053Z,26.75
2023-01-19T08:27:07.997Z,27.05
2023-01-19T08:28:11.627Z,26.57
2023-01-19T08:29:07.427Z,27.29
2023-01-19T08:30:07.420Z,27.08
2023-01-19T08:31:19.766Z,27.39
2023-01-19T08:32:10.074Z,27.23
2023-01-19T08:33:09.930Z,26.67
2023-01-19T08:34:08.042Z,26.75
2023-01-19T08:35:06.641Z,26.70
2023-01-19T08:36:07.131Z,26.67
2023-01-19T08:37:06.914Z,26.84
2023-01-19T08:38:06.540Z,27.37
2023-01-19T08:39:06.459Z,26.63
2023-01-19T08:40:07.281Z,24.84
2023-01-19T08:41:06.427Z,24.59
2023-01-19T08:42:06.666Z,24.58
2023-01-19T08:43:06.400Z,24.58
2023-01-19T08:44:06.708Z,25.04
2023-01-19T08:45:06.457Z,26.06
2023-01-19T08:46:07.108Z,26.11
2023-01-19T08:47:06.663Z,26.26
2023-01-19T08:48:06.267Z,26.34
2023-01-19T08:49:06.903Z,26.48
2023-01-19T08:50:06.250Z,26.64
2023-01-19T08:51:06.329Z,26.91
2023-01-19T08:52:06.236Z,27.21
2023-01-19T08:53:06.362Z,27.47
2023-01-19T08:54:06.987Z,27.50
2023-01-19T08:55:06.555Z,27.66
2023-01-19T08:56:07.427Z,27.83
2023-01-19T08:57:05.972Z,28.05
2023-01-19T08:58:06.347Z,28.12
2023-01-19T08:59:11.311Z,28.34
2023-01-19T09:00:07.340Z,28.54
2023-01-19T09:01:05.810Z,28.64
2023-01-19T09:02:05.777Z,28.93
2023-01-19T09:03:06.228Z,28.97
2023-01-19T09:04:05.928Z,29.12
2023-01-19T09:05:06.170Z,29.16
2023-01-19T09:06:06.120Z,29.26
2023-01-19T09:08:05.701Z,29.48
2023-01-19T09:09:05.425Z,29.60
2023-01-19T09:10:05.431Z,29.76
2023-01-19T09:11:05.418Z,29.85
2023-01-19T09:12:05.342Z,30.02
2023-01-19T09:13:05.306Z,30.15
2023-01-19T09:14:05.297Z,30.30
2023-01-19T09:15:05.275Z,30.36
2023-01-19T09:16:05.301Z,30.43
2023-01-19T09:17:05.181Z,30.52
2023-01-19T09:18:26.183Z,30.59
2023-01-19T09:19:05.137Z,30.78
2023-01-19T09:20:05.104Z,30.96
2023-01-19T09:21:05.090Z,31.11
2023-01-19T09:22:05.034Z,31.07
2023-01-19T09:23:05.057Z,31.17
2023-01-19T09:24:05.041Z,31.20
2023-01-19T09:25:04.965Z,31.26
2023-01-19T09:26:04.949Z,31.29
2023-01-19T09:27:04.967Z,31.48
2023-01-19T09:28:04.862Z,31.58
2023-01-19T09:29:04.809Z,31.54
2023-01-19T09:30:04.799Z,31.51
2023-01-19T09:31:04.894Z,31.61
2023-01-19T09:32:04.702Z,31.52
2023-01-19T09:33:04.694Z,31.54
2023-01-19T09:34:04.660Z,31.53
2023-01-19T09:35:04.623Z,31.68
2023-01-19T09:36:04.620Z,31.80
2023-01-19T09:37:04.548Z,31.60
2023-01-19T09:38:04.522Z,31.55
2023-01-19T09:39:04.487Z,31.54
2023-01-19T09:40:04.542Z,31.61
2023-01-19T09:41:04.529Z,32.09
2023-01-19T09:42:04.402Z,33.20
2023-01-19T09:43:04.358Z,32.57
2023-01-19T09:44:04.449Z,32.25
2023-01-19T09:45:04.351Z,32.22
2023-01-19T09:46:04.302Z,32.28
2023-01-19T09:47:04.294Z,32.30
2023-01-19T09:48:04.194Z,32.26
2023-01-19T09:49:04.197Z,32.37
2023-01-19T09:50:04.184Z,32.38
2023-01-19T09:51:04.097Z,32.50
2023-01-19T09:52:04.107Z,32.41
2023-01-19T09:53:04.031Z,32.45
2023-01-19T09:54:04.016Z,32.35
2023-01-19T09:55:03.982Z,32.29
2023-01-19T09:56:04.050Z,32.22
2023-01-19T09:57:03.902Z,32.22
2023-01-19T09:58:04.081Z,32.20
2023-01-19T09:59:03.878Z,32.21
2023-01-19T10:00:03.850Z,32.30
2023-01-19T10:01:03.936Z,32.34
2023-01-19T10:02:03.753Z,32.26
2023-01-19T10:03:04.096Z,32.39
2023-01-19T10:04:03.694Z,32.34
2023-01-19T10:05:03.686Z,32.44
2023-01-19T10:06:03.663Z,32.52
2023-01-19T10:07:03.615Z,32.57
2023-01-19T10:08:03.836Z,32.82
2023-01-19T10:09:03.568Z,32.91
2023-01-19T10:10:03.525Z,32.34
2023-01-19T10:11:03.509Z,32.24
2023-01-19T10:12:03.466Z,32.18
2023-01-19T10:13:03.655Z,31.80
2023-01-19T10:14:03.396Z,31.50
2023-01-19T10:15:03.351Z,31.26
2023-01-19T10:16:03.376Z,30.98
2023-01-19T10:17:03.308Z,30.93
2023-01-19T10:18:03.676Z,30.31
2023-01-19T10:19:03.233Z,30.00
2023-01-19T10:20:03.213Z,29.73
2023-01-19T10:21:05.375Z,29.66
2023-01-19T10:22:03.120Z,29.33
2023-01-19T10:23:03.667Z,29.08
2023-01-19T10:24:05.017Z,28.84
2023-01-19T10:25:03.251Z,28.87
2023-01-19T10:26:03.213Z,28.73
2023-01-19T10:27:03.149Z,28.77
2023-01-19T10:28:03.124Z,28.78
2023-01-19T10:29:03.111Z,28.43
2023-01-19T10:30:03.089Z,28.10
2023-01-19T10:31:03.162Z,28.05
2023-01-19T10:32:03.065Z,27.98
2023-01-19T10:33:03.298Z,27.83
2023-01-19T10:34:02.973Z,27.90
2023-01-19T10:35:02.905Z,27.76
2023-01-19T10:36:02.886Z,27.59
2023-01-19T10:37:02.852Z,27.38
2023-01-19T10:38:02.932Z,27.31
2023-01-19T10:39:02.789Z,27.29
2023-01-19T10:40:02.742Z,27.07
2023-01-19T10:41:02.793Z,27.39
2023-01-19T10:42:02.702Z,27.94
2023-01-19T10:43:03.107Z,28.41
2023-01-19T10:44:02.656Z,28.40
2023-01-19T10:45:03.684Z,28.60
2023-01-19T10:46:02.655Z,28.52
2023-01-19T10:47:02.561Z,28.64
2023-01-19T10:48:02.588Z,28.72
2023-01-19T10:49:02.536Z,28.79
2023-01-19T10:50:02.453Z,28.86
2023-01-19T10:51:02.466Z,28.99
2023-01-19T10:52:02.410Z,29.16
2023-01-19T10:53:02.780Z,29.25
2023-01-19T10:54:02.422Z,29.65
2023-01-19T10:55:02.367Z,29.80
2023-01-19T10:56:02.317Z,29.93
2023-01-19T10:57:02.257Z,29.99
2023-01-19T10:58:02.232Z,29.66
2023-01-19T10:59:02.202Z,29.64
2023-01-19T11:00:02.142Z,29.57
2023-01-19T11:01:02.206Z,29.17
2023-01-19T11:02:02.327Z,28.75
2023-01-19T11:03:02.599Z,28.77
2023-01-19T11:04:02.073Z,28.71
2023-01-19T11:05:02.110Z,28.49
2023-01-19T11:06:01.975Z,28.31
2023-01-19T11:07:01.955Z,28.15
2023-01-19T11:08:01.917Z,27.95
2023-01-19T11:09:01.891Z,27.67
2023-01-19T11:10:01.865Z,27.67
2023-01-19T11:11:01.844Z,27.54
2023-01-19T11:12:01.893Z,27.44
2023-01-19T11:13:02.374Z,27.50
2023-01-19T11:14:01.760Z,27.50
2023-01-19T11:15:01.707Z,27.30
2023-01-19T11:16:01.740Z,27.44
2023-01-19T11:17:01.670Z,27.38
2023-01-19T11:18:01.654Z,27.24
2023-01-19T11:19:01.599Z,27.08
2023-01-19T11:20:01.598Z,26.97
2023-01-19T11:21:01.600Z,26.89
2023-01-19T11:22:01.580Z,26.80
2023-01-19T11:23:01.897Z,26.82
2023-01-19T11:24:01.458Z,26.83
2023-01-19T11:25:01.445Z,26.68
2023-01-19T11:26:01.405Z,26.61
2023-01-19T11:27:01.367Z,26.66
2023-01-19T11:28:01.340Z,26.81
2023-01-19T11:29:01.300Z,26.71
2023-01-19T11:30:01.290Z,26.78
2023-01-19T11:31:01.317Z,27.08
2023-01-19T11:32:01.241Z,26.86
2023-01-19T11:33:01.657Z,27.17
2023-01-19T11:34:01.156Z,27.50
2023-01-19T11:35:01.134Z,27.70
2023-01-19T11:36:01.092Z,27.95
2023-01-19T11:37:01.096Z,28.16
2023-01-19T11:38:01.061Z,28.30
2023-01-19T11:39:01.007Z,28.55
2023-01-19T11:40:01.022Z,28.65
2023-01-19T11:41:00.961Z,28.78
2023-01-19T11:42:00.971Z,28.81
2023-01-19T11:43:01.135Z,28.89
2023-01-19T11:44:00.858Z,29.01
2023-01-19T11:45:02.646Z,29.04
2023-01-19T11:46:00.851Z,29.17
2023-01-19T11:47:00.779Z,29.27
2023-01-19T11:48:01.091Z,29.51
2023-01-19T11:49:00.710Z,29.68
2023-01-19T11:50:00.678Z,29.81
2023-01-19T11:51:00.658Z,30.01
2023-01-19T11:52:00.622Z,30.05
2023-01-19T11:53:00.587Z,30.33
2023-01-19T11:54:00.565Z,30.39
2023-01-19T11:55:00.578Z,30.39
2023-01-19T11:56:00.504Z,30.40
2023-01-19T11:57:00.514Z,30.41
2023-01-19T11:58:00.817Z,30.41
2023-01-19T11:59:00.412Z,30.43
2023-01-19T12:00:00.375Z,30.48
2023-01-19T12:01:00.406Z,30.43
2023-01-19T12:02:00.384Z,30.48
2023-01-19T12:03:00.315Z,30.26
2023-01-19T12:04:00.251Z,30.00
2023-01-19T12:05:00.203Z,29.79
2023-01-19T12:06:00.188Z,29.86
2023-01-19T12:07:00.348Z,29.58
2023-01-19T12:08:00.521Z,29.43
2023-01-19T12:09:00.101Z,29.35
2023-01-19T12:10:00.081Z,29.11
2023-01-19T12:11:00.109Z,28.91
2023-01-19T12:12:00.036Z,28.93
2023-01-19T12:13:00.009Z,28.89
2023-01-19T12:13:59.963Z,28.78
2023-01-19T12:14:59.905Z,28.56
2023-01-19T12:15:59.910Z,28.72
2023-01-19T12:16:59.864Z,28.60
2023-01-19T12:18:00.437Z,28.48
2023-01-19T12:18:59.779Z,28.74
2023-01-19T12:19:59.779Z,28.63
2023-01-19T12:21:00.818Z,28.57
2023-01-19T12:21:59.813Z,28.53
2023-01-19T12:22:59.885Z,28.46
2023-01-19T12:23:59.801Z,28.46
2023-01-19T12:24:59.685Z,28.66
2023-01-19T12:25:59.715Z,28.97
2023-01-19T12:26:59.639Z,29.03
2023-01-19T12:27:59.612Z,29.22
2023-01-19T12:28:59.597Z,29.47
2023-01-19T12:29:59.526Z,29.52
2023-01-19T12:30:59.598Z,29.07
2023-01-19T12:31:59.569Z,28.89
2023-01-19T12:32:59.458Z,28.55
2023-01-19T12:33:59.415Z,28.33
2023-01-19T12:34:59.365Z,27.95
2023-01-19T12:35:59.351Z,27.87
2023-01-19T12:36:59.317Z,27.77
2023-01-19T12:37:59.288Z,28.03
2023-01-19T12:38:59.245Z,28.10
2023-01-19T12:39:59.216Z,27.98
2023-01-19T12:40:59.172Z,27.88
2023-01-19T12:41:59.151Z,27.66
2023-01-19T12:42:59.135Z,27.74
2023-01-19T12:43:59.096Z,27.54
2023-01-19T12:44:59.057Z,27.61
2023-01-19T12:45:59.060Z,27.51
2023-01-19T12:46:58.989Z,27.42
2023-01-19T12:47:58.976Z,27.23
2023-01-19T12:48:58.930Z,26.97
2023-01-19T12:49:58.902Z,27.15
2023-01-19T12:50:58.866Z,27.10
2023-01-19T12:51:58.835Z,27.06
2023-01-19T12:52:58.809Z,26.74
2023-01-19T12:53:58.777Z,26.67
2023-01-19T12:54:58.766Z,26.73
2023-01-19T12:55:58.711Z,27.14
2023-01-19T12:56:58.672Z,26.95
2023-01-19T12:57:58.643Z,27.07
2023-01-19T12:58:58.604Z,27.28
2023-01-19T12:59:58.607Z,26.41
2023-01-19T13:00:58.644Z,26.22
2023-01-19T13:01:58.544Z,26.16
2023-01-19T13:02:58.547Z,25.97
2023-01-19T13:03:58.440Z,26.05
2023-01-19T13:04:58.408Z,26.08
2023-01-19T13:05:58.386Z,26.16
2023-01-19T13:06:58.344Z,26.26
2023-01-19T13:07:58.336Z,26.02
2023-01-19T13:08:58.300Z,25.95
2023-01-19T13:09:58.260Z,26.05
2023-01-19T13:10:58.387Z,25.94
2023-01-19T13:12:00.917Z,25.95
2023-01-19T13:12:58.176Z,25.81
2023-01-19T13:13:58.135Z,25.81
2023-01-19T13:14:58.287Z,25.55
2023-01-19T13:15:58.052Z,25.45
2023-01-19T13:16:58.013Z,25.59
2023-01-19T13:17:58.009Z,25.73
2023-01-19T13:18:57.967Z,25.61
2023-01-19T13:19:57.895Z,25.49
2023-01-19T13:20:57.868Z,25.36
2023-01-19T13:21:57.849Z,25.39
2023-01-19T13:22:57.807Z,25.37
2023-01-19T13:23:57.802Z,25.13
2023-01-19T13:24:58.361Z,25.17
2023-01-19T13:25:57.708Z,25.20
2023-01-19T13:26:57.678Z,25.11
2023-01-19T13:27:57.664Z,25.18
2023-01-19T13:28:57.639Z,25.62
2023-01-19T13:29:57.630Z,25.87
2023-01-19T13:30:57.673Z,25.96
2023-01-19T13:31:57.546Z,25.92
2023-01-19T13:32:57.503Z,25.90
2023-01-19T13:33:57.491Z,25.98
2023-01-19T13:34:57.529Z,26.04
2023-01-19T13:35:57.471Z,26.12
2023-01-19T13:36:57.388Z,26.20
2023-01-19T13:37:57.365Z,26.24
2023-01-19T13:38:57.337Z,26.31
2023-01-19T13:39:57.313Z,26.37
2023-01-19T13:40:57.271Z,26.45
2023-01-19T13:41:57.251Z,26.52
2023-01-19T13:42:57.223Z,26.59
2023-01-19T13:43:57.203Z,26.67
2023-01-19T13:44:57.155Z,26.72
2023-01-19T13:45:57.115Z,26.79
2023-01-19T13:46:57.104Z,26.84
2023-01-19T13:47:57.070Z,26.90
2023-01-19T13:48:57.067Z,26.98
2023-01-19T13:49:57.030Z,27.04
2023-01-19T13:50:56.998Z,27.06
2023-01-19T13:51:56.963Z,27.13
2023-01-19T13:52:56.931Z,27.28
2023-01-19T13:53:56.919Z,27.48
2023-01-19T13:54:56.909Z,27.73
2023-01-19T13:55:56.878Z,27.96
2023-01-19T13:56:56.857Z,28.12
2023-01-19T13:57:56.815Z,28.26
2023-01-19T13:58:56.796Z,28.34
2023-01-19T13:59:56.778Z,28.45
2023-01-19T14:00:56.788Z,28.55
2023-01-19T14:01:56.827Z,28.68
2023-01-19T14:02:56.722Z,28.64
2023-01-19T14:03:56.675Z,28.80
2023-01-19T14:04:56.662Z,28.88
2023-01-19T14:05:56.680Z,28.76
2023-01-19T14:06:56.591Z,28.70
2023-01-19T14:07:56.659Z,28.63
2023-01-19T14:08:56.549Z,28.50
2023-01-19T14:09:56.512Z,28.89
2023-01-19T14:10:56.547Z,28.48
2023-01-19T14:11:56.470Z,28.67
2023-01-19T14:12:59.539Z,28.57
2023-01-19T14:13:56.414Z,28.65
2023-01-19T14:14:56.372Z,28.76
2023-01-19T14:15:56.428Z,28.64
2023-01-19T14:16:56.347Z,28.56
2023-01-19T14:17:56.288Z,29.61
2023-01-19T14:18:56.275Z,31.53
2023-01-19T14:19:56.288Z,30.26
2023-01-19T14:20:56.258Z,30.08
2023-01-19T14:21:56.205Z,29.11
2023-01-19T14:22:56.212Z,28.81
2023-01-19T14:23:56.180Z,28.79
2023-01-19T14:24:56.164Z,28.72
2023-01-19T14:25:56.121Z,28.62
2023-01-19T14:26:56.150Z,28.58
2023-01-19T14:27:56.102Z,28.52
2023-01-19T14:28:56.089Z,28.53
2023-01-19T14:29:56.044Z,28.57
2023-01-19T14:30:56.077Z,28.58
2023-01-19T14:31:56.020Z,28.51
2023-01-19T14:32:55.975Z,28.53
2023-01-19T14:33:55.972Z,28.42
2023-01-19T14:34:55.965Z,28.30
2023-01-19T14:35:55.945Z,28.14
2023-01-19T14:36:55.902Z,28.19
2023-01-19T14:37:55.900Z,28.26
2023-01-19T14:38:55.872Z,28.08
2023-01-19T14:39:55.871Z,28.07
2023-01-19T14:40:55.828Z,28.11
2023-01-19T14:41:55.865Z,28.09
2023-01-19T14:42:55.782Z,28.10
2023-01-19T14:43:55.775Z,27.99
2023-01-19T14:44:55.782Z,28.10
2023-01-19T14:45:55.715Z,28.04
2023-01-19T14:46:55.691Z,27.98
2023-01-19T14:47:55.671Z,27.99
2023-01-19T14:48:55.659Z,28.14
2023-01-19T14:49:55.626Z,28.30
2023-01-19T14:51:03.280Z,28.37
2023-01-19T14:51:56.570Z,28.46
2023-01-19T14:52:55.598Z,28.44
2023-01-19T14:53:57.405Z,28.47
2023-01-19T14:54:55.527Z,28.48
2023-01-19T14:55:55.509Z,28.52
2023-01-19T14:56:55.495Z,28.52
2023-01-19T14:57:55.476Z,28.57
2023-01-19T14:58:55.456Z,28.61
2023-01-19T14:59:55.455Z,28.64
2023-01-19T15:00:55.533Z,28.69
2023-01-19T15:01:55.481Z,28.73
2023-01-19T15:02:55.404Z,28.76
2023-01-19T15:03:55.362Z,28.79
2023-01-19T15:04:55.474Z,28.81
2023-01-19T15:05:55.319Z,28.83
2023-01-19T15:06:55.298Z,28.87
2023-01-19T15:07:55.296Z,28.89
2023-01-19T15:08:55.278Z,28.92
2023-01-19T15:09:55.268Z,28.97
2023-01-19T15:10:55.224Z,28.98
2023-01-19T15:11:55.200Z,29.01
2023-01-19T15:12:55.180Z,29.01
2023-01-19T15:13:55.147Z,29.07
2023-01-19T15:14:55.140Z,29.10
2023-01-19T15:15:55.145Z,29.11
2023-01-19T15:16:55.124Z,29.15
2023-01-19T15:17:56.246Z,29.18
2023-01-19T15:18:55.053Z,29.21
2023-01-19T15:19:55.024Z,29.22
2023-01-19T15:20:55.001Z,29.25
2023-01-19T15:21:54.951Z,29.28
2023-01-19T15:22:54.990Z,29.29
2023-01-19T15:23:54.908Z,29.32
2023-01-19T15:24:54.910Z,29.35
2023-01-19T15:25:54.883Z,29.37
2023-01-19T15:26:54.848Z,29.38
2023-01-19T15:27:54.933Z,29.42
2023-01-19T15:28:54.810Z,29.43
2023-01-19T15:29:54.799Z,29.47
2023-01-19T15:30:54.823Z,29.48
2023-01-19T15:31:54.833Z,29.50
2023-01-19T15:32:54.734Z,29.51
2023-01-19T15:33:54.694Z,29.54
2023-01-19T15:34:54.749Z,29.57
2023-01-19T15:35:54.673Z,29.59
2023-01-19T15:36:54.647Z,29.61
2023-01-19T15:37:54.615Z,29.61
2023-01-19T15:38:54.573Z,29.64
2023-01-19T15:39:54.567Z,29.67
2023-01-19T15:40:54.545Z,29.69
2023-01-19T15:41:54.528Z,29.71
2023-01-19T15:42:54.509Z,29.70
2023-01-19T15:43:54.476Z,29.75
2023-01-19T15:44:54.477Z,29.75
2023-01-19T15:45:54.518Z,29.76
2023-01-19T15:46:54.797Z,29.78
2023-01-19T15:47:54.389Z,29.84